createdAt,value
2024-03-12T00:02:47.746Z,19.82
2024-03-12T00:05:35.408Z,19.94
2024-03-12T00:08:23.022Z,19.99
2024-03-12T00:11:11.504Z,20.48
2024-03-12T00:13:59.369Z,20.78
2024-03-12T00:16:47.123Z,19.93
2024-03-12T00:19:35.156Z,20.31
2024-03-12T00:22:23.648Z,19.86
2024-03-12T00:25:11.377Z,20.18
2024-03-12T00:28:00.274Z,19.80
2024-03-12T00:30:48.041Z,19.28
2024-03-12T00:33:35.836Z,19.58
2024-03-12T00:36:23.565Z,18.72
2024-03-12T00:39:11.832Z,19.58
2024-03-12T00:42:00.052Z,19.89
2024-03-12T00:44:49.716Z,19.99
2024-03-12T00:47:38.124Z,18.53
2024-03-12T00:50:25.971Z,19.34
2024-03-12T00:53:14.441Z,19.70
2024-03-12T00:56:04.475Z,19.69
2024-03-12T00:58:53.277Z,19.61
2024-03-12T01:01:40.914Z,19.52
2024-03-12T01:04:28.513Z,19.57
2024-03-12T01:07:17.591Z,20.16
2024-03-12T01:10:06.972Z,20.05
2024-03-12T01:12:56.156Z,19.49
2024-03-12T01:15:43.864Z,19.79
2024-03-12T01:18:33.069Z,19.63
2024-03-12T01:21:21.690Z,19.70
2024-03-12T01:24:09.388Z,18.92
2024-03-12T01:26:56.993Z,19.53
2024-03-12T01:29:44.775Z,19.88
2024-03-12T01:32:32.451Z,19.45
2024-03-12T01:35:22.281Z,19.74
2024-03-12T01:38:11.678Z,20.12
2024-03-12T01:41:00.405Z,19.93
2024-03-12T01:44:00.687Z,20.08
2024-03-12T01:46:48.957Z,19.14
2024-03-12T01:49:37.502Z,19.99
2024-03-12T01:52:25.329Z,19.59
2024-03-12T01:55:14.104Z,19.77
2024-03-12T01:58:01.968Z,20.00
2024-03-12T02:00:50.196Z,19.58
2024-03-12T02:03:38.017Z,19.71
2024-03-12T02:06:26.220Z,19.76
2024-03-12T02:09:13.970Z,19.46
2024-03-12T02:12:01.658Z,19.82
2024-03-12T02:14:50.312Z,19.56
2024-03-12T02:17:38.173Z,19.88
2024-03-12T02:20:28.191Z,19.95
2024-03-12T02:23:16.406Z,19.71
2024-03-12T02:26:04.610Z,20.04
2024-03-12T02:28:52.702Z,19.98
2024-03-12T02:31:40.723Z,19.34
2024-03-12T02:34:30.486Z,19.66
2024-03-12T02:37:18.316Z,19.98
2024-03-12T02:40:08.844Z,19.78
2024-03-12T02:42:56.707Z,19.56
2024-03-12T02:45:45.279Z,19.59
2024-03-12T02:48:33.055Z,19.91
2024-03-12T02:51:20.801Z,19.54
2024-03-12T02:54:08.502Z,19.71
2024-03-12T02:56:56.160Z,19.64
2024-03-12T02:59:44.800Z,19.37
2024-03-12T03:02:34.435Z,19.35
2024-03-12T03:05:22.104Z,19.49
2024-03-12T03:08:09.724Z,19.63
2024-03-12T03:10:57.407Z,19.79
2024-03-12T03:13:45.021Z,19.69
2024-03-12T03:16:34.443Z,19.35
2024-03-12T03:19:22.205Z,19.71
2024-03-12T03:22:10.840Z,19.71
2024-03-12T03:24:58.738Z,19.92
2024-03-12T03:27:46.332Z,20.51
2024-03-12T03:30:33.942Z,19.80
2024-03-12T03:33:23.767Z,19.73
2024-03-12T03:36:14.778Z,19.84
2024-03-12T03:39:02.579Z,19.54
2024-03-12T03:41:50.589Z,19.98
2024-03-12T03:44:38.171Z,19.96
2024-03-12T03:47:25.936Z,19.82
2024-03-12T03:50:13.922Z,19.41
2024-03-12T03:53:01.591Z,19.60
2024-03-12T03:55:50.056Z,19.28
2024-03-12T03:58:37.755Z,19.30
2024-03-12T04:01:25.837Z,19.31
2024-03-12T04:04:16.925Z,19.66
2024-03-12T04:07:06.294Z,19.70
2024-03-12T04:09:56.110Z,19.31
2024-03-12T04:12:46.053Z,19.87
2024-03-12T04:15:35.422Z,19.39
2024-03-12T04:18:24.015Z,19.39
2024-03-12T04:21:27.673Z,19.55
2024-03-12T04:24:15.425Z,19.55
2024-03-12T04:27:03.270Z,19.69
2024-03-12T04:29:50.903Z,19.84
2024-03-12T04:32:42.049Z,19.72
2024-03-12T04:35:29.773Z,19.68
2024-03-12T04:38:20.018Z,19.62
2024-03-12T04:41:38.668Z,19.45
2024-03-12T04:44:41.506Z,19.59
2024-03-12T04:47:29.093Z,19.70
2024-03-12T04:50:16.722Z,19.49
2024-03-12T04:53:04.794Z,19.80
2024-03-12T04:55:52.534Z,19.47
2024-03-12T04:58:40.241Z,19.93
2024-03-12T05:01:28.055Z,19.50
2024-03-12T05:04:22.245Z,19.57
2024-03-12T05:07:13.036Z,19.28
2024-03-12T05:10:01.133Z,19.74
2024-03-12T05:12:51.864Z,19.25
2024-03-12T05:15:40.641Z,19.18
2024-03-12T05:18:28.249Z,19.70
2024-03-12T05:21:15.984Z,19.36
2024-03-12T05:24:04.728Z,19.51
2024-03-12T05:26:55.401Z,19.67
2024-03-12T05:29:53.615Z,19.63
2024-03-12T05:32:42.589Z,19.37
2024-03-12T05:35:32.756Z,19.31
2024-03-12T05:38:32.698Z,19.67
2024-03-12T05:41:27.221Z,19.35
2024-03-12T05:44:33.385Z,19.56
2024-03-12T05:47:40.784Z,19.36
2024-03-12T05:50:28.721Z,19.63
2024-03-12T05:53:16.934Z,19.51
2024-03-12T05:56:05.774Z,19.83
2024-03-12T05:58:53.430Z,19.93
2024-03-12T06:01:41.223Z,19.53
2024-03-12T06:04:33.340Z,19.97
2024-03-12T06:07:21.442Z,20.53
2024-03-12T06:10:10.267Z,20.11
2024-03-12T06:12:58.090Z,19.97
2024-03-12T06:15:45.766Z,19.99
2024-03-12T06:18:33.620Z,19.78
2024-03-12T06:21:22.075Z,20.21
2024-03-12T06:24:09.908Z,20.13
2024-03-12T06:26:58.417Z,20.12
2024-03-12T06:29:52.686Z,20.03
2024-03-12T06:32:40.486Z,19.75
2024-03-12T06:35:29.239Z,19.58
2024-03-12T06:38:17.351Z,19.87
2024-03-12T06:41:08.505Z,20.05
2024-03-12T06:43:56.181Z,19.49
2024-03-12T06:46:46.338Z,19.85
2024-03-12T06:49:34.859Z,19.86
2024-03-12T06:52:27.906Z,19.60
2024-03-12T06:55:18.428Z,19.81
2024-03-12T06:58:08.867Z,20.31
2024-03-12T07:00:57.400Z,20.15
2024-03-12T07:03:46.530Z,20.26
2024-03-12T07:06:35.654Z,20.38
2024-03-12T07:09:27.708Z,20.39
2024-03-12T07:12:15.410Z,20.23
2024-03-12T07:15:06.577Z,20.25
2024-03-12T07:17:54.416Z,20.10
2024-03-12T07:20:42.093Z,19.89
2024-03-12T07:23:29.689Z,19.79
2024-03-12T07:26:17.888Z,19.47
2024-03-12T07:29:08.092Z,20.15
2024-03-12T07:31:55.752Z,20.04
2024-03-12T07:34:43.727Z,19.45
2024-03-12T07:37:31.419Z,20.24
2024-03-12T07:40:19.716Z,20.18
2024-03-12T07:43:07.596Z,19.51
2024-03-12T07:45:55.447Z,19.73
2024-03-12T07:48:43.667Z,19.40
2024-03-12T07:51:31.756Z,19.75
2024-03-12T07:54:22.719Z,19.40
2024-03-12T07:57:10.569Z,19.02
2024-03-12T07:59:59.132Z,18.70
2024-03-12T08:02:47.244Z,18.99
2024-03-12T08:05:35.491Z,19.53
2024-03-12T08:08:23.141Z,19.84
2024-03-12T08:11:10.816Z,19.28
2024-03-12T08:13:58.489Z,19.07
2024-03-12T08:16:46.342Z,18.99
2024-03-12T08:19:35.170Z,19.01
2024-03-12T08:22:23.695Z,19.28
2024-03-12T08:25:12.801Z,18.70
2024-03-12T08:28:00.727Z,19.07
2024-03-12T08:30:48.493Z,19.18
2024-03-12T08:33:36.334Z,19.30
2024-03-12T08:36:24.219Z,19.39
2024-03-12T08:39:14.977Z,19.35
2024-03-12T08:42:03.316Z,18.87
2024-03-12T08:44:50.897Z,18.75
2024-03-12T08:47:39.290Z,18.67
2024-03-12T08:50:27.079Z,18.25
2024-03-12T08:53:16.037Z,18.78
2024-03-12T08:56:04.990Z,18.03
2024-03-12T08:58:53.309Z,18.08
2024-03-12T09:01:41.139Z,18.24
2024-03-12T09:04:31.590Z,18.59
2024-03-12T09:07:19.374Z,18.39
2024-03-12T09:10:12.986Z,18.72
2024-03-12T09:13:01.209Z,18.88
2024-03-12T09:15:53.230Z,19.02
2024-03-12T09:18:43.511Z,19.79
2024-03-12T09:21:31.960Z,19.02
2024-03-12T09:24:20.317Z,18.38
2024-03-12T09:27:08.536Z,18.78
2024-03-12T09:29:57.705Z,19.22
2024-03-12T09:32:45.451Z,18.84
2024-03-12T09:35:33.625Z,18.69
2024-03-12T09:38:21.523Z,19.55
2024-03-12T09:41:10.521Z,18.70
2024-03-12T09:43:58.709Z,18.62
2024-03-12T09:46:47.536Z,18.32
2024-03-12T09:49:36.355Z,18.77
2024-03-12T09:52:24.077Z,18.71
2024-03-12T09:55:12.708Z,19.40
2024-03-12T09:58:00.524Z,18.76
2024-03-12T10:00:48.563Z,18.46
2024-03-12T10:03:39.209Z,18.41
2024-03-12T10:06:27.452Z,18.82
2024-03-12T10:09:18.699Z,18.62
2024-03-12T10:12:09.827Z,19.35
2024-03-12T10:14:57.683Z,18.92
2024-03-12T10:17:57.706Z,19.08
2024-03-12T10:20:46.245Z,19.17
2024-03-12T10:23:35.248Z,19.34
2024-03-12T10:26:26.622Z,19.10
2024-03-12T10:29:15.084Z,19.22
2024-03-12T10:32:22.933Z,19.28
2024-03-12T10:35:20.758Z,19.58
2024-03-12T10:38:12.374Z,19.56
2024-03-12T10:41:16.810Z,19.20
2024-03-12T10:44:08.824Z,19.50
2024-03-12T10:47:00.505Z,19.46
2024-03-12T10:49:51.061Z,19.54
2024-03-12T10:52:39.624Z,19.57
2024-03-12T10:55:28.159Z,19.52
2024-03-12T10:58:16.818Z,19.86
2024-03-12T11:01:06.357Z,18.98
2024-03-12T11:04:00.098Z,19.28
2024-03-12T11:06:49.702Z,19.82
2024-03-12T11:09:38.056Z,19.65
2024-03-12T11:12:26.325Z,19.56
2024-03-12T11:15:14.890Z,19.81
2024-03-12T11:18:03.380Z,19.73
2024-03-12T11:20:51.840Z,19.85
2024-03-12T11:23:39.456Z,19.87
2024-03-12T11:26:37.058Z,19.97
2024-03-12T11:29:57.466Z,19.84
2024-03-12T11:32:45.243Z,19.45
2024-03-12T11:35:33.441Z,19.86
2024-03-12T11:38:28.905Z,20.61
2024-03-12T11:41:17.750Z,20.17
2024-03-12T11:44:05.457Z,21.01
2024-03-12T11:46:53.396Z,20.49
2024-03-12T11:49:42.721Z,19.99
2024-03-12T11:52:33.031Z,19.85
2024-03-12T11:55:50.792Z,19.93
2024-03-12T11:58:45.749Z,19.54
2024-03-12T12:01:35.194Z,20.10
2024-03-12T12:04:23.340Z,20.46
2024-03-12T12:07:11.155Z,20.40
2024-03-12T12:09:59.072Z,20.98
2024-03-12T12:12:49.178Z,21.36
2024-03-12T12:15:37.138Z,20.38
2024-03-12T12:18:27.092Z,21.08
2024-03-12T12:21:15.836Z,20.99
2024-03-12T12:24:04.797Z,20.71
2024-03-12T12:26:54.999Z,21.37
2024-03-12T12:29:42.734Z,20.34
2024-03-12T12:32:30.569Z,20.92
2024-03-12T12:35:20.958Z,21.14
2024-03-12T12:38:10.824Z,20.47
2024-03-12T12:40:58.514Z,20.92
2024-03-12T12:43:46.419Z,20.24
2024-03-12T12:46:36.589Z,19.62
2024-03-12T12:49:26.179Z,20.49
2024-03-12T12:52:14.707Z,20.39
2024-03-12T12:55:02.387Z,21.32
2024-03-12T12:57:57.880Z,20.98
2024-03-12T13:00:47.031Z,20.63
2024-03-12T13:03:36.333Z,20.43
2024-03-12T13:06:24.452Z,20.79
2024-03-12T13:09:12.076Z,21.51
2024-03-12T13:12:00.817Z,21.94
2024-03-12T13:14:48.615Z,21.19
2024-03-12T13:17:36.249Z,21.64
2024-03-12T13:20:25.627Z,21.25
2024-03-12T13:23:13.415Z,20.90
2024-03-12T13:26:02.436Z,21.17
2024-03-12T13:28:52.388Z,20.70
2024-03-12T13:31:41.386Z,20.68
2024-03-12T13:34:29.124Z,20.01
2024-03-12T13:37:16.840Z,20.99
2024-03-12T13:40:06.405Z,21.47
2024-03-12T13:42:54.064Z,21.53
2024-03-12T13:45:42.047Z,21.55
2024-03-12T13:48:30.199Z,21.52
2024-03-12T13:51:17.785Z,20.74
2024-03-12T13:54:09.459Z,20.54
2024-03-12T13:56:57.528Z,21.18
2024-03-12T13:59:45.647Z,20.82
2024-03-12T14:02:33.718Z,21.35
2024-03-12T14:05:22.118Z,20.54
2024-03-12T14:08:09.945Z,21.03
2024-03-12T14:11:00.754Z,21.47
2024-03-12T14:13:50.975Z,20.91
2024-03-12T14:16:38.719Z,22.12
2024-03-12T14:19:26.666Z,21.46
2024-03-12T14:22:14.552Z,21.01
2024-03-12T14:25:02.437Z,20.76
2024-03-12T14:27:50.881Z,20.60
2024-03-12T14:30:41.685Z,21.05
2024-03-12T14:33:30.096Z,20.75
2024-03-12T14:36:18.337Z,21.06
2024-03-12T14:39:08.881Z,21.05
2024-03-12T14:41:57.029Z,21.14
2024-03-12T14:44:44.809Z,20.80
2024-03-12T14:47:33.649Z,21.05
2024-03-12T14:50:23.538Z,21.10
2024-03-12T14:53:11.270Z,21.37
2024-03-12T14:56:01.835Z,21.35
2024-03-12T14:58:49.686Z,21.52
2024-03-12T15:01:37.488Z,21.50
2024-03-12T15:04:25.159Z,21.92
2024-03-12T15:07:14.649Z,21.39
2024-03-12T15:10:03.626Z,22.23
2024-03-12T15:12:53.633Z,21.72
2024-03-12T15:15:43.040Z,21.63
2024-03-12T15:18:32.824Z,21.35
2024-03-12T15:21:21.745Z,21.29
2024-03-12T15:24:09.375Z,21.17
2024-03-12T15:26:58.589Z,21.48
2024-03-12T15:29:46.282Z,21.74
2024-03-12T15:32:34.093Z,21.36
2024-03-12T15:35:21.755Z,21.59
2024-03-12T15:38:09.424Z,21.46
2024-03-12T15:40:58.612Z,21.84
2024-03-12T15:43:46.537Z,21.76
2024-03-12T15:46:34.346Z,21.63
2024-03-12T15:49:22.140Z,21.73
2024-03-12T15:52:09.893Z,21.64
2024-03-12T15:54:57.812Z,21.80
2024-03-12T15:57:47.066Z,21.65
2024-03-12T16:00:35.565Z,21.31
2024-03-12T16:03:25.085Z,20.85
2024-03-12T16:06:15.797Z,21.78
2024-03-12T16:09:03.839Z,22.71
2024-03-12T16:11:53.340Z,22.66
2024-03-12T16:14:41.999Z,22.38
2024-03-12T16:17:35.834Z,22.59
2024-03-12T16:20:23.777Z,22.16
2024-03-12T16:23:12.348Z,21.95
2024-03-12T16:26:00.001Z,22.49
2024-03-12T16:28:47.734Z,21.98
2024-03-12T16:31:35.501Z,22.07
2024-03-12T16:34:26.990Z,22.67
2024-03-12T16:37:14.951Z,22.94
2024-03-12T16:40:02.812Z,22.42
2024-03-12T16:42:51.548Z,22.37
2024-03-12T16:45:39.336Z,22.89
2024-03-12T16:48:27.420Z,22.96
2024-03-12T16:51:16.362Z,22.58
2024-03-12T16:54:04.110Z,22.16
2024-03-12T16:56:53.174Z,21.94
2024-03-12T16:59:40.959Z,22.07
2024-03-12T17:02:39.738Z,21.86
2024-03-12T17:05:27.981Z,22.33
2024-03-12T17:08:15.647Z,22.81
2024-03-12T17:11:05.020Z,22.68
2024-03-12T17:13:53.060Z,22.97
2024-03-12T17:16:40.865Z,23.62
2024-03-12T17:19:28.685Z,23.68
2024-03-12T17:22:16.597Z,22.89
2024-03-12T17:25:06.004Z,22.38
2024-03-12T17:27:54.317Z,22.82
2024-03-12T17:30:42.761Z,23.33
2024-03-12T17:33:30.508Z,23.06
2024-03-12T17:36:18.736Z,23.11
2024-03-12T17:39:11.062Z,22.70
2024-03-12T17:41:59.364Z,22.60
2024-03-12T17:44:47.786Z,23.17
2024-03-12T17:47:36.321Z,23.72
2024-03-12T17:50:25.180Z,23.12
2024-03-12T17:53:13.073Z,23.09
2024-03-12T17:56:01.976Z,23.61
2024-03-12T17:58:52.559Z,23.06
2024-03-12T18:01:41.189Z,22.92
2024-03-12T18:04:30.203Z,23.32
2024-03-12T18:07:24.767Z,23.73
2024-03-12T18:10:17.108Z,23.39
2024-03-12T18:13:04.906Z,24.04
2024-03-12T18:15:53.201Z,23.68
2024-03-12T18:18:40.876Z,24.08
2024-03-12T18:21:28.754Z,23.88
2024-03-12T18:24:16.475Z,23.62
2024-03-12T18:27:04.434Z,23.70
2024-03-12T18:29:53.505Z,23.35
2024-03-12T18:32:41.399Z,23.47
2024-03-12T18:35:29.867Z,23.45
2024-03-12T18:38:17.566Z,23.54
2024-03-12T18:41:05.204Z,23.86
2024-03-12T18:43:52.869Z,23.77
2024-03-12T18:46:40.528Z,23.68
2024-03-12T18:49:28.665Z,24.13
2024-03-12T18:52:16.430Z,23.80
2024-03-12T18:55:05.242Z,24.09
2024-03-12T18:57:53.440Z,24.03
2024-03-12T19:00:42.026Z,23.99
2024-03-12T19:03:42.714Z,24.22
2024-03-12T19:06:30.715Z,24.07
2024-03-12T19:09:21.252Z,23.82
2024-03-12T19:12:11.806Z,23.96
2024-03-12T19:14:59.599Z,24.47
2024-03-12T19:17:50.251Z,23.98
2024-03-12T19:20:38.206Z,23.69
2024-03-12T19:23:26.085Z,24.39
2024-03-12T19:26:15.439Z,24.18
2024-03-12T19:29:03.110Z,24.16
2024-03-12T19:31:51.269Z,24.20
2024-03-12T19:34:39.200Z,24.66
2024-03-12T19:37:28.579Z,24.56
2024-03-12T19:40:22.697Z,24.51
2024-03-12T19:43:10.893Z,24.17
2024-03-12T19:46:01.705Z,24.13
2024-03-12T19:51:38.076Z,24.35
2024-03-12T19:57:14.945Z,24.22
2024-03-12T20:00:13.425Z,24.41
2024-03-12T20:03:03.483Z,24.32
2024-03-12T20:05:51.238Z,23.93
2024-03-12T20:08:40.196Z,24.55
2024-03-12T20:11:27.902Z,24.17
2024-03-12T20:14:17.086Z,24.38
2024-03-12T20:17:08.416Z,24.08
2024-03-12T20:19:56.093Z,24.22
2024-03-12T20:22:44.311Z,24.25
2024-03-12T20:25:33.003Z,24.17
2024-03-12T20:28:20.798Z,24.10
2024-03-12T20:31:08.507Z,24.02
2024-03-12T20:33:56.203Z,24.55
2024-03-12T20:36:46.532Z,24.41
2024-03-12T20:39:39.097Z,24.16
2024-03-12T20:42:30.628Z,24.62
2024-03-12T20:45:22.910Z,24.89
2024-03-12T20:48:11.770Z,24.31
2024-03-12T20:50:59.897Z,24.50
2024-03-12T20:53:47.558Z,24.55
2024-03-12T20:56:35.650Z,24.50
2024-03-12T20:59:24.880Z,24.62
2024-03-12T21:02:15.217Z,24.40
2024-03-12T21:05:02.857Z,24.42
2024-03-12T21:07:52.758Z,24.74
2024-03-12T21:10:44.576Z,24.96
2024-03-12T21:13:32.440Z,24.78
2024-03-12T21:16:20.715Z,24.65
2024-03-12T21:19:09.281Z,25.21
2024-03-12T21:21:57.259Z,24.40
2024-03-12T21:24:45.225Z,24.45
2024-03-12T21:27:32.975Z,25.04
2024-03-12T21:30:23.074Z,24.76
2024-03-12T21:33:12.557Z,24.81
2024-03-12T21:36:00.540Z,24.92
2024-03-12T21:38:49.275Z,24.66
2024-03-12T21:41:37.135Z,24.74
2024-03-12T21:44:26.516Z,24.91
2024-03-12T21:47:14.743Z,24.83
2024-03-12T21:50:03.970Z,24.88
2024-03-12T21:52:52.070Z,24.38
2024-03-12T21:55:40.399Z,24.78
2024-03-12T21:58:28.183Z,24.77
2024-03-12T22:01:16.049Z,24.36
2024-03-12T22:04:03.934Z,24.42
2024-03-12T22:06:51.664Z,24.61
2024-03-12T22:09:39.444Z,24.84
2024-03-12T22:12:27.097Z,25.14
2024-03-12T22:15:16.263Z,24.83
2024-03-12T22:18:04.783Z,24.84
2024-03-12T22:20:52.467Z,25.18
2024-03-12T22:23:40.799Z,25.12
2024-03-12T22:26:30.227Z,25.19
2024-03-12T22:29:19.080Z,24.78
2024-03-12T22:32:09.708Z,25.34
2024-03-12T22:35:00.924Z,25.65
2024-03-12T22:37:49.536Z,25.89
2024-03-12T22:40:37.547Z,25.57
2024-03-12T22:43:27.570Z,25.37
2024-03-12T22:46:15.347Z,25.24
2024-03-12T22:49:03.910Z,25.24
2024-03-12T22:51:56.150Z,25.30
2024-03-12T22:54:43.981Z,25.31
2024-03-12T22:57:36.317Z,25.30
2024-03-12T23:00:29.797Z,25.72
2024-03-12T23:03:17.971Z,25.36
2024-03-12T23:06:07.129Z,25.24
2024-03-12T23:08:55.200Z,25.31
2024-03-12T23:11:43.069Z,25.66
2024-03-12T23:14:31.080Z,25.21
2024-03-12T23:17:18.664Z,25.23
2024-03-12T23:20:07.795Z,25.03
2024-03-12T23:22:55.355Z,25.21
2024-03-12T23:25:43.551Z,25.20
2024-03-12T23:28:31.158Z,25.19
2024-03-12T23:31:20.023Z,25.12
2024-03-12T23:34:07.778Z,25.31
2024-03-12T23:36:55.513Z,25.40
2024-03-12T23:39:44.084Z,25.29
2024-03-12T23:42:31.794Z,25.23
2024-03-12T23:45:19.788Z,25.06
2024-03-12T23:48:07.591Z,24.62
2024-03-12T23:50:55.336Z,25.15
2024-03-12T23:53:43.127Z,25.16
2024-03-12T23:56:30.752Z,25.19
2024-03-12T23:59:19.031Z,25.45
